sensor_id;sensor_type;location;lat;lon;timestamp;noise_LAeq;noise_LA_min;noise_LA_max;noise_LA01;noise_LA95
67304;Laerm;57660;51.436;5.978;2023-01-10T00:00:08;39.90;35.00;54.41;;
67304;Laerm;57660;51.436;5.978;2023-01-10T00:00:22;40.98;35.10;48.20;;
67304;Laerm;57660;51.436;5.978;2023-01-10T00:00:32;42.79;36.62;58.18;;
67304;Laerm;57660;51.436;5.978;2023-01-10T00:00:46;39.07;35.83;53.96;;
67304;Laerm;57660;51.436;5.978;2023-01-10T00:00:56;38.20;34.19;46.76;;
67304;Laerm;57660;51.436;5.978;2023-01-10T00:01:07;36.72;33.88;43.45;;
67304;Laerm;57660;51.436;5.978;2023-01-10T00:01:17;42.42;35.10;56.03;;
67304;Laerm;57660;51.436;5.978;2023-01-10T00:01:30;42.30;35.24;53.33;;
67304;Laerm;57660;51.436;5.978;2023-01-10T00:01:40;39.06;37.04;41.99;;
67304;Laerm;57660;51.436;5.978;2023-01-10T00:01:51;40.94;37.71;50.53;;
67304;Laerm;57660;51.436;5.978;2023-01-10T00:02:04;39.15;36.02;47.02;;
67304;Laerm;57660;51.436;5.978;2023-01-10T00:02:18;44.15;36.23;62.22;;
67304;Laerm;57660;51.436;5.978;2023-01-10T00:02:30;44.62;34.72;54.20;;
67304;Laerm;57660;51.436;5.978;2023-01-10T00:02:41;44.84;34.31;58.05;;
67304;Laerm;57660;51.436;5.978;2023-01-10T00:02:51;36.10;33.68;44.95;;
67304;Laerm;57660;51.436;5.978;2023-01-10T00:03:03;39.28;33.94;49.90;;
67304;Laerm;57660;51.436;5.978;2023-01-10T00:03:15;42.28;34.75;52.14;;
67304;Laerm;57660;51.436;5.978;2023-01-10T00:03:25;46.96;34.09;61.95;;
67304;Laerm;57660;51.436;5.978;2023-01-10T00:03:38;38.45;35.37;45.79;;
67304;Laerm;57660;51.436;5.978;2023-01-10T00:03:51;37.27;34.26;40.54;;
67304;Laerm;57660;51.436;5.978;2023-01-10T00:04:01;41.79;34.08;54.91;;
67304;Laerm;57660;51.436;5.978;2023-01-10T00:04:17;35.88;34.24;37.91;;
67304;Laerm;57660;51.436;5.978;2023-01-10T00:04:28;37.89;35.04;43.15;;
67304;Laerm;57660;51.436;5.978;2023-01-10T00:04:39;36.87;34.62;40.14;;
67304;Laerm;57660;51.436;5.978;2023-01-10T00:04:52;40.01;34.92;50.31;;
67304;Laerm;57660;51.436;5.978;2023-01-10T00:05:02;41.56;36.47;55.85;;
67304;Laerm;57660;51.436;5.978;2023-01-10T00:05:13;47.66;37.07;60.49;;
67304;Laerm;57660;51.436;5.978;2023-01-10T00:05:26;44.37;37.80;52.58;;
67304;Laerm;57660;51.436;5.978;2023-01-10T00:05:37;41.72;37.02;48.63;;
67304;Laerm;57660;51.436;5.978;2023-01-10T00:05:47;41.40;36.61;52.17;;
67304;Laerm;57660;51.436;5.978;2023-01-10T00:06:01;38.80;35.53;45.42;;
67304;Laerm;57660;51.436;5.978;2023-01-10T00:06:11;40.45;33.58;52.84;;
67304;Laerm;57660;51.436;5.978;2023-01-10T00:06:21;40.13;33.82;49.91;;
67304;Laerm;57660;51.436;5.978;2023-01-10T00:06:41;37.16;34.54;45.04;;
67304;Laerm;57660;51.436;5.978;2023-01-10T00:06:54;38.10;33.83;44.08;;
67304;Laerm;57660;51.436;5.978;2023-01-10T00:07:04;38.46;36.13;48.35;;
67304;Laerm;57660;51.436;5.978;2023-01-10T00:07:15;45.32;36.78;57.22;;
67304;Laerm;57660;51.436;5.978;2023-01-10T00:07:28;49.87;37.24;57.54;;
67304;Laerm;57660;51.436;5.978;2023-01-10T00:07:38;46.41;42.57;50.30;;
67304;Laerm;57660;51.436;5.978;2023-01-10T00:07:48;46.35;42.36;49.24;;
67304;Laerm;57660;51.436;5.978;2023-01-10T00:08:01;59.45;45.58;72.20;;
67304;Laerm;57660;51.436;5.978;2023-01-10T00:08:15;78.84;71.48;86.16;;
67304;Laerm;57660;51.436;5.978;2023-01-10T00:08:26;79.25;67.87;84.95;;
67304;Laerm;57660;51.436;5.978;2023-01-10T00:08:39;55.10;39.88;68.69;;
67304;Laerm;57660;51.436;5.978;2023-01-10T00:08:49;40.31;38.14;42.32;;
67304;Laerm;57660;51.436;5.978;2023-01-10T00:09:06;38.31;36.32;40.59;;
67304;Laerm;57660;51.436;5.978;2023-01-10T00:09:17;39.82;36.12;49.65;;
67304;Laerm;57660;51.436;5.978;2023-01-10T00:09:27;40.11;37.00;48.64;;
67304;Laerm;57660;51.436;5.978;2023-01-10T00:09:37;38.23;34.80;42.95;;
67304;Laerm;57660;51.436;5.978;2023-01-10T00:09:47;37.62;34.21;47.09;;
67304;Laerm;57660;51.436;5.978;2023-01-10T00:09:57;37.65;33.79;45.18;;
67304;Laerm;57660;51.436;5.978;2023-01-10T00:10:08;39.12;33.64;50.43;;
67304;Laerm;57660;51.436;5.978;2023-01-10T00:10:28;37.11;34.18;45.02;;
67304;Laerm;57660;51.436;5.978;2023-01-10T00:10:38;36.84;34.62;45.40;;
67304;Laerm;57660;51.436;5.978;2023-01-10T00:10:51;36.28;34.18;42.48;;
67304;Laerm;57660;51.436;5.978;2023-01-10T00:11:01;36.21;33.77;42.83;;
67304;Laerm;57660;51.436;5.978;2023-01-10T00:11:37;38.44;34.26;53.77;;
67304;Laerm;57660;51.436;5.978;2023-01-10T00:12:09;39.07;34.81;51.96;;
67304;Laerm;57660;51.436;5.978;2023-01-10T00:12:38;39.85;34.79;56.49;;
67304;Laerm;57660;51.436;5.978;2023-01-10T00:13:11;40.90;35.30;53.07;;
67304;Laerm;57660;51.436;5.978;2023-01-10T00:13:35;43.61;33.33;58.73;;
67304;Laerm;57660;51.436;5.978;2023-01-10T00:13:45;35.38;33.11;40.03;;
67304;Laerm;57660;51.436;5.978;2023-01-10T00:13:55;36.40;34.58;41.60;;
67304;Laerm;57660;51.436;5.978;2023-01-10T00:14:05;36.61;34.19;45.09;;
67304;Laerm;57660;51.436;5.978;2023-01-10T00:14:15;36.15;33.97;41.53;;
67304;Laerm;57660;51.436;5.978;2023-01-10T00:14:29;34.46;30.47;40.81;;
67304;Laerm;57660;51.436;5.978;2023-01-10T00:14:42;35.03;29.97;47.04;;
67304;Laerm;57660;51.436;5.978;2023-01-10T00:14:52;33.36;31.53;39.23;;
67304;Laerm;57660;51.436;5.978;2023-01-10T00:15:05;33.39;31.14;39.98;;
67304;Laerm;57660;51.436;5.978;2023-01-10T00:15:18;33.00;31.05;37.89;;
67304;Laerm;57660;51.436;5.978;2023-01-10T00:15:30;34.26;30.86;41.43;;
67304;Laerm;57660;51.436;5.978;2023-01-10T00:15:41;33.11;31.30;39.40;;
67304;Laerm;57660;51.436;5.978;2023-01-10T00:15:54;37.94;30.93;51.21;;
67304;Laerm;57660;51.436;5.978;2023-01-10T00:16:06;37.93;31.51;50.88;;
67304;Laerm;57660;51.436;5.978;2023-01-10T00:16:29;37.29;31.09;51.62;;
67304;Laerm;57660;51.436;5.978;2023-01-10T00:16:39;32.73;30.64;41.98;;
67304;Laerm;57660;51.436;5.978;2023-01-10T00:16:51;36.81;30.66;52.16;;
67304;Laerm;57660;51.436;5.978;2023-01-10T00:17:04;35.94;31.29;49.32;;
67304;Laerm;57660;51.436;5.978;2023-01-10T00:17:14;40.93;32.08;57.96;;
67304;Laerm;57660;51.436;5.978;2023-01-10T00:17:24;40.98;32.12;54.76;;
67304;Laerm;57660;51.436;5.978;2023-01-10T00:17:41;38.07;31.66;48.73;;
67304;Laerm;57660;51.436;5.978;2023-01-10T00:17:51;34.50;31.68;40.90;;
67304;Laerm;57660;51.436;5.978;2023-01-10T00:18:01;39.79;32.15;52.29;;
67304;Laerm;57660;51.436;5.978;2023-01-10T00:18:14;35.16;31.61;48.10;;
67304;Laerm;57660;51.436;5.978;2023-01-10T00:18:25;33.92;31.25;44.83;;
67304;Laerm;57660;51.436;5.978;2023-01-10T00:18:43;33.53;31.31;37.07;;
67304;Laerm;57660;51.436;5.978;2023-01-10T00:18:54;32.48;30.13;40.34;;
67304;Laerm;57660;51.436;5.978;2023-01-10T00:19:04;32.51;30.93;41.25;;
67304;Laerm;57660;51.436;5.978;2023-01-10T00:19:15;36.87;32.08;50.21;;
67304;Laerm;57660;51.436;5.978;2023-01-10T00:19:25;33.93;31.18;47.18;;
67304;Laerm;57660;51.436;5.978;2023-01-10T00:19:35;33.52;31.91;37.30;;
67304;Laerm;57660;51.436;5.978;2023-01-10T00:19:51;36.61;31.92;48.22;;
67304;Laerm;57660;51.436;5.978;2023-01-10T00:20:01;34.20;31.50;41.38;;
67304;Laerm;57660;51.436;5.978;2023-01-10T00:20:11;35.81;32.44;46.63;;
67304;Laerm;57660;51.436;5.978;2023-01-10T00:20:21;36.05;32.09;50.12;;
67304;Laerm;57660;51.436;5.978;2023-01-10T00:20:35;47.04;32.38;60.70;;
67304;Laerm;57660;51.436;5.978;2023-01-10T00:20:45;47.54;32.62;60.23;;
67304;Laerm;57660;51.436;5.978;2023-01-10T00:20:56;37.05;32.26;52.97;;
67304;Laerm;57660;51.436;5.978;2023-01-10T00:21:09;37.75;33.67;49.56;;
67304;Laerm;57660;51.436;5.978;2023-01-10T00:21:20;36.29;32.44;45.33;;
67304;Laerm;57660;51.436;5.978;2023-01-10T00:21:30;38.86;32.26;54.09;;
67304;Laerm;57660;51.436;5.978;2023-01-10T00:21:40;44.93;35.16;58.25;;
67304;Laerm;57660;51.436;5.978;2023-01-10T00:21:51;45.93;33.52;58.84;;
67304;Laerm;57660;51.436;5.978;2023-01-10T00:22:01;42.37;33.76;57.04;;
67304;Laerm;57660;51.436;5.978;2023-01-10T00:22:20;36.06;31.58;49.00;;
67304;Laerm;57660;51.436;5.978;2023-01-10T00:22:34;40.51;32.93;57.31;;
67304;Laerm;57660;51.436;5.978;2023-01-10T00:22:44;44.10;32.59;61.21;;
67304;Laerm;57660;51.436;5.978;2023-01-10T00:22:57;36.46;32.50;46.78;;
67304;Laerm;57660;51.436;5.978;2023-01-10T00:23:08;38.33;33.51;48.38;;
67304;Laerm;57660;51.436;5.978;2023-01-10T00:23:18;39.98;33.19;53.77;;
67304;Laerm;57660;51.436;5.978;2023-01-10T00:23:31;45.80;33.35;64.03;;
67304;Laerm;57660;51.436;5.978;2023-01-10T00:23:42;36.26;32.71;45.36;;
67304;Laerm;57660;51.436;5.978;2023-01-10T00:23:56;39.53;33.00;51.56;;
67304;Laerm;57660;51.436;5.978;2023-01-10T00:24:25;37.73;32.23;53.43;;
67304;Laerm;57660;51.436;5.978;2023-01-10T00:24:48;39.49;32.16;57.61;;
67304;Laerm;57660;51.436;5.978;2023-01-10T00:24:58;38.27;32.89;47.45;;
67304;Laerm;57660;51.436;5.978;2023-01-10T00:25:17;40.10;32.48;53.53;;
67304;Laerm;57660;51.436;5.978;2023-01-10T00:25:30;39.67;32.00;53.55;;
67304;Laerm;57660;51.436;5.978;2023-01-10T00:25:46;36.97;33.66;50.01;;
67304;Laerm;57660;51.436;5.978;2023-01-10T00:25:56;42.96;32.77;57.77;;
67304;Laerm;57660;51.436;5.978;2023-01-10T00:26:06;40.14;33.83;54.46;;
67304;Laerm;57660;51.436;5.978;2023-01-10T00:26:25;38.79;35.87;53.47;;
67304;Laerm;57660;51.436;5.978;2023-01-10T00:26:35;37.56;33.48;49.07;;
67304;Laerm;57660;51.436;5.978;2023-01-10T00:26:46;36.10;31.67;51.58;;
67304;Laerm;57660;51.436;5.978;2023-01-10T00:27:12;40.71;31.84;56.23;;
67304;Laerm;57660;51.436;5.978;2023-01-10T00:27:22;47.65;34.35;63.29;;
67304;Laerm;57660;51.436;5.978;2023-01-10T00:27:32;39.40;33.45;49.67;;
67304;Laerm;57660;51.436;5.978;2023-01-10T00:27:47;43.76;34.83;59.03;;
67304;Laerm;57660;51.436;5.978;2023-01-10T00:28:26;45.00;33.95;61.91;;
67304;Laerm;57660;51.436;5.978;2023-01-10T00:28:36;49.15;43.17;53.94;;
67304;Laerm;57660;51.436;5.978;2023-01-10T00:28:48;46.05;41.26;50.19;;
67304;Laerm;57660;51.436;5.978;2023-01-10T00:28:58;47.32;43.25;53.19;;
67304;Laerm;57660;51.436;5.978;2023-01-10T00:29:08;53.04;45.01;60.40;;
67304;Laerm;57660;51.436;5.978;2023-01-10T00:29:19;74.34;58.15;79.78;;
67304;Laerm;57660;51.436;5.978;2023-01-10T00:29:30;72.69;70.39;75.22;;
67304;Laerm;57660;51.436;5.978;2023-01-10T00:29:40;70.90;54.76;74.83;;
67304;Laerm;57660;51.436;5.978;2023-01-10T00:29:50;48.66;35.89;56.27;;
67304;Laerm;57660;51.436;5.978;2023-01-10T00:30:03;36.80;33.80;48.05;;
67304;Laerm;57660;51.436;5.978;2023-01-10T00:30:23;37.94;31.58;51.16;;
67304;Laerm;57660;51.436;5.978;2023-01-10T00:30:33;35.32;32.17;48.05;;
67304;Laerm;57660;51.436;5.978;2023-01-10T00:30:47;42.18;31.86;55.87;;
67304;Laerm;57660;51.436;5.978;2023-01-10T00:31:00;41.26;33.21;56.12;;
67304;Laerm;57660;51.436;5.978;2023-01-10T00:31:13;45.67;31.91;59.41;;
67304;Laerm;57660;51.436;5.978;2023-01-10T00:31:25;35.19;31.48;45.07;;
67304;Laerm;57660;51.436;5.978;2023-01-10T00:31:35;36.26;32.93;48.75;;
67304;Laerm;57660;51.436;5.978;2023-01-10T00:31:46;42.23;32.68;58.87;;
67304;Laerm;57660;51.436;5.978;2023-01-10T00:31:59;36.82;32.04;52.15;;
67304;Laerm;57660;51.436;5.978;2023-01-10T00:32:09;34.60;31.51;46.34;;
67304;Laerm;57660;51.436;5.978;2023-01-10T00:32:20;34.43;31.31;39.21;;
67304;Laerm;57660;51.436;5.978;2023-01-10T00:32:30;38.75;33.45;50.48;;
67304;Laerm;57660;51.436;5.978;2023-01-10T00:32:44;35.58;32.82;42.33;;
67304;Laerm;57660;51.436;5.978;2023-01-10T00:32:54;44.85;31.67;60.57;;
67304;Laerm;57660;51.436;5.978;2023-01-10T00:33:08;34.62;32.30;37.18;;
67304;Laerm;57660;51.436;5.978;2023-01-10T00:33:21;53.40;33.60;66.89;;
67304;Laerm;57660;51.436;5.978;2023-01-10T00:33:32;37.96;32.87;52.15;;
67304;Laerm;57660;51.436;5.978;2023-01-10T00:33:42;41.58;34.01;54.09;;
67304;Laerm;57660;51.436;5.978;2023-01-10T00:33:53;35.44;32.60;42.03;;
67304;Laerm;57660;51.436;5.978;2023-01-10T00:34:03;39.64;33.13;53.20;;
67304;Laerm;57660;51.436;5.978;2023-01-10T00:34:22;38.87;32.81;50.36;;
67304;Laerm;57660;51.436;5.978;2023-01-10T00:34:33;37.29;31.53;53.60;;
67304;Laerm;57660;51.436;5.978;2023-01-10T00:34:44;33.52;31.71;41.87;;
67304;Laerm;57660;51.436;5.978;2023-01-10T00:34:57;46.22;33.10;60.54;;
67304;Laerm;57660;51.436;5.978;2023-01-10T00:35:08;47.94;34.41;62.89;;
67304;Laerm;57660;51.436;5.978;2023-01-10T00:35:19;37.32;33.13;48.80;;
67304;Laerm;57660;51.436;5.978;2023-01-10T00:35:30;37.54;32.54;53.14;;
67304;Laerm;57660;51.436;5.978;2023-01-10T00:35:43;41.82;32.51;58.07;;
67304;Laerm;57660;51.436;5.978;2023-01-10T00:35:53;45.92;34.25;57.19;;
67304;Laerm;57660;51.436;5.978;2023-01-10T00:36:04;35.76;32.51;46.25;;
67304;Laerm;57660;51.436;5.978;2023-01-10T00:36:15;38.53;32.42;50.26;;
67304;Laerm;57660;51.436;5.978;2023-01-10T00:36:25;39.75;32.38;52.72;;
67304;Laerm;57660;51.436;5.978;2023-01-10T00:36:35;41.75;32.95;55.01;;
67304;Laerm;57660;51.436;5.978;2023-01-10T00:36:45;42.95;34.70;56.93;;
67304;Laerm;57660;51.436;5.978;2023-01-10T00:36:56;37.93;34.73;43.62;;
67304;Laerm;57660;51.436;5.978;2023-01-10T00:37:07;45.30;34.18;58.80;;
67304;Laerm;57660;51.436;5.978;2023-01-10T00:37:17;36.15;34.04;40.07;;
67304;Laerm;57660;51.436;5.978;2023-01-10T00:37:31;46.52;31.99;62.36;;
67304;Laerm;57660;51.436;5.978;2023-01-10T00:37:41;37.47;31.93;51.60;;
67304;Laerm;57660;51.436;5.978;2023-01-10T00:37:51;40.58;32.83;55.47;;
67304;Laerm;57660;51.436;5.978;2023-01-10T00:38:06;36.77;32.22;50.30;;
67304;Laerm;57660;51.436;5.978;2023-01-10T00:38:32;36.32;33.30;44.84;;
67304;Laerm;57660;51.436;5.978;2023-01-10T00:38:43;34.44;32.50;37.44;;
67304;Laerm;57660;51.436;5.978;2023-01-10T00:39:02;35.59;32.23;44.67;;
67304;Laerm;57660;51.436;5.978;2023-01-10T00:39:14;35.32;32.21;41.52;;
67304;Laerm;57660;51.436;5.978;2023-01-10T00:39:24;34.45;32.38;37.49;;
67304;Laerm;57660;51.436;5.978;2023-01-10T00:39:39;36.09;33.22;46.26;;
67304;Laerm;57660;51.436;5.978;2023-01-10T00:39:50;42.05;33.33;58.18;;
67304;Laerm;57660;51.436;5.978;2023-01-10T00:40:00;36.40;33.42;41.63;;
67304;Laerm;57660;51.436;5.978;2023-01-10T00:40:10;36.16;33.78;46.08;;
67304;Laerm;57660;51.436;5.978;2023-01-10T00:40:21;37.06;33.48;48.16;;
67304;Laerm;57660;51.436;5.978;2023-01-10T00:40:31;36.19;32.91;50.15;;
67304;Laerm;57660;51.436;5.978;2023-01-10T00:40:51;48.18;35.10;63.62;;
67304;Laerm;57660;51.436;5.978;2023-01-10T00:41:02;38.06;32.33;51.15;;
67304;Laerm;57660;51.436;5.978;2023-01-10T00:41:12;34.82;32.37;40.72;;
67304;Laerm;57660;51.436;5.978;2023-01-10T00:41:41;35.92;32.19;48.81;;
67304;Laerm;57660;51.436;5.978;2023-01-10T00:42:10;40.18;32.50;61.49;;
67304;Laerm;57660;51.436;5.978;2023-01-10T00:42:39;35.67;31.79;43.92;;
67304;Laerm;57660;51.436;5.978;2023-01-10T00:43:08;36.76;31.65;53.47;;
67304;Laerm;57660;51.436;5.978;2023-01-10T00:43:37;40.18;32.11;56.15;;
67304;Laerm;57660;51.436;5.978;2023-01-10T00:44:19;39.40;33.75;54.04;;
67304;Laerm;57660;51.436;5.978;2023-01-10T00:44:29;38.87;32.33;49.55;;
67304;Laerm;57660;51.436;5.978;2023-01-10T00:44:40;36.88;32.71;45.12;;
67304;Laerm;57660;51.436;5.978;2023-01-10T00:44:53;38.42;32.56;53.70;;
67304;Laerm;57660;51.436;5.978;2023-01-10T00:45:03;44.69;34.57;55.55;;
67304;Laerm;57660;51.436;5.978;2023-01-10T00:45:14;42.10;35.18;51.08;;
67304;Laerm;57660;51.436;5.978;2023-01-10T00:45:28;49.14;33.92;61.07;;
67304;Laerm;57660;51.436;5.978;2023-01-10T00:45:43;52.03;34.83;66.36;;
67304;Laerm;57660;51.436;5.978;2023-01-10T00:45:53;42.22;34.56;56.01;;
67304;Laerm;57660;51.436;5.978;2023-01-10T00:46:07;38.92;34.79;49.17;;
67304;Laerm;57660;51.436;5.978;2023-01-10T00:46:17;36.69;32.97;44.21;;
67304;Laerm;57660;51.436;5.978;2023-01-10T00:46:27;40.09;33.76;54.90;;
67304;Laerm;57660;51.436;5.978;2023-01-10T00:46:38;42.55;33.58;56.43;;
67304;Laerm;57660;51.436;5.978;2023-01-10T00:46:48;35.82;32.90;43.25;;
67304;Laerm;57660;51.436;5.978;2023-01-10T00:47:01;37.03;32.57;53.44;;
67304;Laerm;57660;51.436;5.978;2023-01-10T00:47:11;34.94;32.81;43.92;;
67304;Laerm;57660;51.436;5.978;2023-01-10T00:47:22;38.92;34.36;52.34;;
67304;Laerm;57660;51.436;5.978;2023-01-10T00:47:35;41.85;33.70;57.23;;
67304;Laerm;57660;51.436;5.978;2023-01-10T00:47:45;42.83;35.57;54.95;;
67304;Laerm;57660;51.436;5.978;2023-01-10T00:47:55;47.34;35.22;61.38;;
67304;Laerm;57660;51.436;5.978;2023-01-10T00:48:06;38.43;33.73;49.86;;
67304;Laerm;57660;51.436;5.978;2023-01-10T00:48:19;34.95;32.97;39.21;;
67304;Laerm;57660;51.436;5.978;2023-01-10T00:48:29;40.44;34.31;52.82;;
67304;Laerm;57660;51.436;5.978;2023-01-10T00:48:39;41.83;33.90;56.21;;
67304;Laerm;57660;51.436;5.978;2023-01-10T00:48:52;47.41;34.11;67.27;;
67304;Laerm;57660;51.436;5.978;2023-01-10T00:49:03;40.68;35.02;53.43;;
67304;Laerm;57660;51.436;5.978;2023-01-10T00:49:26;45.31;34.64;62.55;;
67304;Laerm;57660;51.436;5.978;2023-01-10T00:49:36;38.79;34.12;51.09;;
67304;Laerm;57660;51.436;5.978;2023-01-10T00:49:47;38.55;35.13;47.75;;
67304;Laerm;57660;51.436;5.978;2023-01-10T00:49:57;40.91;34.59;55.81;;
67304;Laerm;57660;51.436;5.978;2023-01-10T00:50:25;41.07;33.49;58.25;;
67304;Laerm;57660;51.436;5.978;2023-01-10T00:50:35;36.14;32.78;44.88;;
67304;Laerm;57660;51.436;5.978;2023-01-10T00:50:45;36.25;33.15;48.34;;
67304;Laerm;57660;51.436;5.978;2023-01-10T00:50:58;38.34;34.72;49.53;;
67304;Laerm;57660;51.436;5.978;2023-01-10T00:51:09;38.16;33.10;48.10;;
67304;Laerm;57660;51.436;5.978;2023-01-10T00:51:21;36.08;33.48;46.34;;
67304;Laerm;57660;51.436;5.978;2023-01-10T00:51:34;53.88;35.08;68.80;;
67304;Laerm;57660;51.436;5.978;2023-01-10T00:51:45;37.37;32.54;49.94;;
67304;Laerm;57660;51.436;5.978;2023-01-10T00:51:55;34.33;32.34;42.35;;
67304;Laerm;57660;51.436;5.978;2023-01-10T00:52:07;38.37;34.34;48.30;;
67304;Laerm;57660;51.436;5.978;2023-01-10T00:52:17;41.93;35.29;56.64;;
67304;Laerm;57660;51.436;5.978;2023-01-10T00:52:34;39.68;32.55;57.52;;
67304;Laerm;57660;51.436;5.978;2023-01-10T00:52:44;35.98;33.82;44.98;;
67304;Laerm;57660;51.436;5.978;2023-01-10T00:52:54;36.29;33.84;39.48;;
67304;Laerm;57660;51.436;5.978;2023-01-10T00:53:04;36.34;32.97;40.41;;
67304;Laerm;57660;51.436;5.978;2023-01-10T00:53:15;35.37;32.13;46.54;;
67304;Laerm;57660;51.436;5.978;2023-01-10T00:53:25;37.43;33.87;45.15;;
67304;Laerm;57660;51.436;5.978;2023-01-10T00:53:36;37.86;32.53;47.64;;
67304;Laerm;57660;51.436;5.978;2023-01-10T00:53:49;35.97;33.20;41.28;;
67304;Laerm;57660;51.436;5.978;2023-01-10T00:53:59;36.60;33.44;42.45;;
67304;Laerm;57660;51.436;5.978;2023-01-10T00:54:10;35.82;32.21;48.26;;
67304;Laerm;57660;51.436;5.978;2023-01-10T00:54:23;42.43;33.32;52.55;;
67304;Laerm;57660;51.436;5.978;2023-01-10T00:54:34;41.04;33.95;56.12;;
67304;Laerm;57660;51.436;5.978;2023-01-10T00:54:44;36.34;32.71;44.29;;
67304;Laerm;57660;51.436;5.978;2023-01-10T00:54:54;46.82;34.48;64.22;;
67304;Laerm;57660;51.436;5.978;2023-01-10T00:55:05;45.65;35.64;58.48;;
67304;Laerm;57660;51.436;5.978;2023-01-10T00:55:17;36.22;32.66;45.14;;
67304;Laerm;57660;51.436;5.978;2023-01-10T00:55:28;36.66;32.69;49.01;;
67304;Laerm;57660;51.436;5.978;2023-01-10T00:55:38;42.76;35.81;54.31;;
67304;Laerm;57660;51.436;5.978;2023-01-10T00:55:55;37.78;34.38;50.97;;
67304;Laerm;57660;51.436;5.978;2023-01-10T00:56:05;37.08;34.30;40.49;;
67304;Laerm;57660;51.436;5.978;2023-01-10T00:56:25;42.73;33.49;55.69;;
67304;Laerm;57660;51.436;5.978;2023-01-10T00:56:35;38.10;34.52;53.27;;
67304;Laerm;57660;51.436;5.978;2023-01-10T00:56:45;35.14;33.47;38.17;;
67304;Laerm;57660;51.436;5.978;2023-01-10T00:56:56;33.98;32.40;41.49;;
67304;Laerm;57660;51.436;5.978;2023-01-10T00:57:09;37.25;33.89;42.44;;
67304;Laerm;57660;51.436;5.978;2023-01-10T00:57:19;39.92;34.45;50.72;;
67304;Laerm;57660;51.436;5.978;2023-01-10T00:57:39;42.89;33.78;61.79;;
67304;Laerm;57660;51.436;5.978;2023-01-10T00:57:49;37.85;34.74;43.59;;
67304;Laerm;57660;51.436;5.978;2023-01-10T00:58:02;40.29;34.53;50.82;;
67304;Laerm;57660;51.436;5.978;2023-01-10T00:58:15;42.30;32.98;59.55;;
67304;Laerm;57660;51.436;5.978;2023-01-10T00:58:25;36.69;32.04;45.33;;
67304;Laerm;57660;51.436;5.978;2023-01-10T00:58:36;40.19;35.01;52.76;;
67304;Laerm;57660;51.436;5.978;2023-01-10T00:58:46;37.38;33.97;45.53;;
67304;Laerm;57660;51.436;5.978;2023-01-10T00:58:59;35.66;32.99;39.44;;
67304;Laerm;57660;51.436;5.978;2023-01-10T00:59:09;38.91;32.38;52.38;;
67304;Laerm;57660;51.436;5.978;2023-01-10T00:59:19;37.41;32.85;50.60;;
67304;Laerm;57660;51.436;5.978;2023-01-10T00:59:39;36.37;32.65;40.26;;
67304;Laerm;57660;51.436;5.978;2023-01-10T00:59:49;45.59;33.19;58.93;;
67304;Laerm;57660;51.436;5.978;2023-01-10T01:00:01;35.75;33.93;37.86;;
67304;Laerm;57660;51.436;5.978;2023-01-10T01:00:18;47.43;33.05;61.99;;
67304;Laerm;57660;51.436;5.978;2023-01-10T01:00:28;40.63;32.99;53.03;;
67304;Laerm;57660;51.436;5.978;2023-01-10T01:00:38;34.89;32.39;39.56;;
67304;Laerm;57660;51.436;5.978;2023-01-10T01:00:49;37.09;33.51;41.43;;
67304;Laerm;57660;51.436;5.978;2023-01-10T01:00:59;35.83;33.23;42.97;;
67304;Laerm;57660;51.436;5.978;2023-01-10T01:01:09;35.71;33.62;38.27;;
67304;Laerm;57660;51.436;5.978;2023-01-10T01:01:27;37.25;34.31;41.08;;
67304;Laerm;57660;51.436;5.978;2023-01-10T01:01:37;36.54;33.09;46.12;;
67304;Laerm;57660;51.436;5.978;2023-01-10T01:01:48;34.64;32.65;36.77;;
67304;Laerm;57660;51.436;5.978;2023-01-10T01:01:58;35.72;32.92;46.25;;
67304;Laerm;57660;51.436;5.978;2023-01-10T01:02:09;36.89;34.79;44.40;;
67304;Laerm;57660;51.436;5.978;2023-01-10T01:02:19;37.84;34.17;47.47;;
67304;Laerm;57660;51.436;5.978;2023-01-10T01:02:29;39.30;33.38;55.31;;
67304;Laerm;57660;51.436;5.978;2023-01-10T01:02:45;35.47;33.19;45.75;;
67304;Laerm;57660;51.436;5.978;2023-01-10T01:02:57;35.95;33.22;40.84;;
67304;Laerm;57660;51.436;5.978;2023-01-10T01:03:07;34.25;32.10;36.58;;
67304;Laerm;57660;51.436;5.978;2023-01-10T01:03:18;34.20;32.01;41.64;;
67304;Laerm;57660;51.436;5.978;2023-01-10T01:03:38;34.37;32.01;44.58;;
67304;Laerm;57660;51.436;5.978;2023-01-10T01:03:48;34.38;32.12;38.02;;
67304;Laerm;57660;51.436;5.978;2023-01-10T01:03:58;36.02;33.15;45.84;;
67304;Laerm;57660;51.436;5.978;2023-01-10T01:04:08;46.96;33.78;59.57;;
67304;Laerm;57660;51.436;5.978;2023-01-10T01:04:19;39.96;35.37;52.73;;
67304;Laerm;57660;51.436;5.978;2023-01-10T01:04:29;44.72;35.09;59.90;;
67304;Laerm;57660;51.436;5.978;2023-01-10T01:04:45;44.51;36.80;56.24;;
67304;Laerm;57660;51.436;5.978;2023-01-10T01:04:56;50.72;33.90;66.95;;
67304;Laerm;57660;51.436;5.978;2023-01-10T01:05:06;45.72;34.59;58.84;;
67304;Laerm;57660;51.436;5.978;2023-01-10T01:05:17;35.45;33.75;41.34;;
67304;Laerm;57660;51.436;5.978;2023-01-10T01:05:27;41.05;33.03;56.89;;
67304;Laerm;57660;51.436;5.978;2023-01-10T01:05:41;36.62;32.46;52.33;;
67304;Laerm;57660;51.436;5.978;2023-01-10T01:05:51;36.13;33.38;45.18;;
67304;Laerm;57660;51.436;5.978;2023-01-10T01:06:03;37.23;32.31;49.36;;
67304;Laerm;57660;51.436;5.978;2023-01-10T01:06:16;43.93;34.82;59.98;;
67304;Laerm;57660;51.436;5.978;2023-01-10T01:06:26;36.85;32.56;51.96;;
67304;Laerm;57660;51.436;5.978;2023-01-10T01:06:36;40.89;33.79;53.08;;
67304;Laerm;57660;51.436;5.978;2023-01-10T01:06:47;39.85;33.47;52.92;;
67304;Laerm;57660;51.436;5.978;2023-01-10T01:06:58;44.90;33.22;61.26;;
67304;Laerm;57660;51.436;5.978;2023-01-10T01:07:08;41.67;34.15;56.71;;
67304;Laerm;57660;51.436;5.978;2023-01-10T01:07:18;43.72;35.95;59.48;;
67304;Laerm;57660;51.436;5.978;2023-01-10T01:07:28;40.26;36.63;50.70;;
67304;Laerm;57660;51.436;5.978;2023-01-10T01:07:39;40.97;35.11;50.82;;
67304;Laerm;57660;51.436;5.978;2023-01-10T01:07:49;41.96;33.38;59.22;;
67304;Laerm;57660;51.436;5.978;2023-01-10T01:08:03;37.02;33.46;44.74;;
67304;Laerm;57660;51.436;5.978;2023-01-10T01:08:16;36.32;32.24;49.52;;
67304;Laerm;57660;51.436;5.978;2023-01-10T01:08:27;36.32;32.60;43.75;;
67304;Laerm;57660;51.436;5.978;2023-01-10T01:08:37;37.50;34.29;47.17;;
67304;Laerm;57660;51.436;5.978;2023-01-10T01:08:47;37.19;32.75;48.80;;
67304;Laerm;57660;51.436;5.978;2023-01-10T01:08:58;40.70;32.37;54.36;;
67304;Laerm;57660;51.436;5.978;2023-01-10T01:09:08;35.97;32.73;45.26;;
67304;Laerm;57660;51.436;5.978;2023-01-10T01:09:18;43.15;32.88;57.63;;
67304;Laerm;57660;51.436;5.978;2023-01-10T01:09:28;36.25;33.65;44.39;;
67304;Laerm;57660;51.436;5.978;2023-01-10T01:09:39;35.79;33.28;41.94;;
67304;Laerm;57660;51.436;5.978;2023-01-10T01:10:09;47.80;32.55;67.67;;
67304;Laerm;57660;51.436;5.978;2023-01-10T01:10:37;40.89;33.35;54.33;;
67304;Laerm;57660;51.436;5.978;2023-01-10T01:10:48;37.45;32.67;49.38;;
67304;Laerm;57660;51.436;5.978;2023-01-10T01:11:00;39.50;32.52;58.38;;
67304;Laerm;57660;51.436;5.978;2023-01-10T01:11:11;40.38;33.34;51.94;;
67304;Laerm;57660;51.436;5.978;2023-01-10T01:11:21;48.52;33.56;66.83;;
67304;Laerm;57660;51.436;5.978;2023-01-10T01:11:31;43.43;33.71;53.63;;